ARG1649 SAZN-SAEZ
Flight info
| Callsign | ARG1649 |
|---|---|
| Flight time | N/A |
| Altitude | 37000 |
| Route | NIDBA3C NIDBA DCT ISMIL UT655 ASADA DCT |
| Aircraft | B738/M-SDE2E3FGHIRWXY/LB1 |
Departure
| Time | 2026-04-26 22:03 |
|---|---|
| Airport | Presidente Perón International Airport (SAZN) |
Arrival
| Time | N/A |
|---|---|
| Airport | Ezeiza International Airport - Ministro Pistarini (SAEZ) |
| Time | Latitude | Longitude | Altitude | Speed | Heading |
|---|---|---|---|---|---|
| 2026-04-26 21:45 | -38.95150 | -68.14069 | 903 ft | 0 kts | 179° |
| 2026-04-26 21:57 | -38.95149 | -68.14069 | 903 ft | 2 kts | 179° |
| 2026-04-26 21:58 | -38.95123 | -68.14070 | 906 ft | 4 kts | 179° |
| 2026-04-26 21:58 | -38.95110 | -68.14070 | 905 ft | 0 kts | 186° |
| 2026-04-26 21:58 | -38.95104 | -68.14069 | 905 ft | 1 kts | 156° |
| 2026-04-26 21:58 | -38.95096 | -68.14077 | 903 ft | 2 kts | 119° |
| 2026-04-26 21:59 | -38.95093 | -68.14084 | 906 ft | 0 kts | 90° |
| 2026-04-26 22:00 | -38.95093 | -68.14080 | 903 ft | 2 kts | 90° |
| 2026-04-26 22:01 | -38.95095 | -68.14014 | 904 ft | 10 kts | 87° |
| 2026-04-26 22:01 | -38.95041 | -68.13991 | 903 ft | 10 kts | 322° |
| 2026-04-26 22:01 | -38.94991 | -68.14056 | 904 ft | 10 kts | 314° |
| 2026-04-26 22:01 | -38.94941 | -68.14117 | 905 ft | 10 kts | 321° |
| 2026-04-26 22:02 | -38.94902 | -68.14183 | 904 ft | 10 kts | 281° |
| 2026-04-26 22:02 | -38.94903 | -68.14214 | 904 ft | 0 kts | 270° |
| 2026-04-26 22:02 | -38.94903 | -68.14222 | 904 ft | 0 kts | 270° |
| 2026-04-26 22:02 | -38.94903 | -68.14277 | 904 ft | 31 kts | 270° |
| 2026-04-26 22:03 | -38.94903 | -68.14901 | 901 ft | 107 kts | 270° |
| 2026-04-26 22:03 | -38.94886 | -68.16138 | 952 ft | 164 kts | 271° |
| 2026-04-26 22:03 | -38.94781 | -68.17746 | 1372 ft | 192 kts | 273° |
| 2026-04-26 22:03 | -38.94640 | -68.19482 | 2216 ft | 198 kts | 272° |
| 2026-04-26 22:04 | -38.94468 | -68.21276 | 2771 ft | 208 kts | 282° |
| 2026-04-26 22:04 | -38.93692 | -68.22892 | 3206 ft | 232 kts | 319° |
| 2026-04-26 22:04 | -38.92123 | -68.23612 | 3458 ft | 262 kts | 358° |
| 2026-04-26 22:04 | -38.90354 | -68.22900 | 4012 ft | 276 kts | 37° |
| 2026-04-26 22:05 | -38.89208 | -68.20970 | 4886 ft | 273 kts | 71° |
| 2026-04-26 22:05 | -38.88516 | -68.18707 | 5839 ft | 275 kts | 69° |
| 2026-04-26 22:05 | -38.87692 | -68.16455 | 6717 ft | 279 kts | 66° |
| 2026-04-26 22:05 | -38.86811 | -68.14214 | 7521 ft | 285 kts | 66° |
| 2026-04-26 22:06 | -38.85897 | -68.11921 | 8240 ft | 292 kts | 66° |
| 2026-04-26 22:06 | -38.84960 | -68.09573 | 8991 ft | 299 kts | 66° |
| 2026-04-26 22:06 | -38.84004 | -68.07173 | 9770 ft | 305 kts | 67° |
| 2026-04-26 22:06 | -38.83027 | -68.04717 | 10404 ft | 316 kts | 67° |
| 2026-04-26 22:07 | -38.81997 | -68.02112 | 10720 ft | 337 kts | 67° |
| 2026-04-26 22:07 | -38.80919 | -67.99393 | 11309 ft | 346 kts | 67° |
| 2026-04-26 22:07 | -38.79822 | -67.96628 | 12037 ft | 351 kts | 67° |
| 2026-04-26 22:07 | -38.79085 | -67.94774 | 12515 ft | 355 kts | 67° |
| 2026-04-26 22:08 | -38.77567 | -67.90954 | 13483 ft | 363 kts | 67° |
| 2026-04-26 22:08 | -38.76410 | -67.88045 | 14217 ft | 370 kts | 67° |
| 2026-04-26 22:08 | -38.75233 | -67.85084 | 14922 ft | 375 kts | 67° |
| 2026-04-26 22:08 | -38.74039 | -67.82085 | 15692 ft | 379 kts | 66° |
| 2026-04-26 22:09 | -38.72849 | -67.79100 | 16438 ft | 383 kts | 66° |
| 2026-04-26 22:09 | -38.71631 | -67.76045 | 17185 ft | 388 kts | 66° |
| 2026-04-26 22:09 | -38.70380 | -67.72910 | 17918 ft | 393 kts | 66° |
| 2026-04-26 22:09 | -38.69142 | -67.69811 | 18616 ft | 398 kts | 66° |